Time;durP1;ratioP1;P1;durP2;ratioP2;P2;SDS_P1;SDS_P2;PMS_P1;PMS_P2;Temp;Humidity;BMP_temperature;BMP_pressure;BME280_temperature;BME280_humidity;BME280_pressure;Samples;Min_cycle;Max_cycle;Signal;HPM_P1;HPM_P2
2023/06/27 00:02:02;;;;;;;32.25;11.57;;;;;;;18.28;61.81;99556.69;1823740;78;27573;-63
2023/06/27 00:04:29;;;;;;;27.37;12.78;;;;;;;18.31;62.21;99556.53;1803140;78;25774;-63
2023/06/27 00:06:56;;;;;;;30.62;11.63;;;;;;;18.29;62.23;99550.06;1823618;78;25449;-63
2023/06/27 00:09:22;;;;;;;22.70;12.05;;;;;;;18.28;62.22;99548.48;1823621;78;25552;-62
2023/06/27 00:11:50;;;;;;;23.12;11.57;;;;;;;18.29;62.16;99539.11;1823741;78;25381;-62
2023/06/27 00:14:20;;;;;;;20.12;12.00;;;;;;;18.32;62.01;99534.81;1823646;78;27469;-63
2023/06/27 00:16:48;;;;;;;21.37;12.43;;;;;;;18.32;62.04;99525.23;1823583;78;25577;-62
2023/06/27 00:19:15;;;;;;;19.77;11.97;;;;;;;18.32;61.59;99518.39;1823827;78;25598;-62
2023/06/27 00:21:41;;;;;;;23.77;12.50;;;;;;;18.31;61.61;99520.35;1823521;78;25819;-62
2023/06/27 00:24:08;;;;;;;17.82;11.73;;;;;;;18.29;61.86;99509.78;1823710;78;25389;-61
2023/06/27 00:26:34;;;;;;;21.23;11.63;;;;;;;18.27;61.79;99508.02;1823689;78;28123;-61
2023/06/27 00:29:00;;;;;;;17.82;11.88;;;;;;;18.25;61.68;99500.77;1823394;78;25741;-62
2023/06/27 00:31:26;;;;;;;22.65;11.97;;;;;;;18.23;61.71;99498.97;1823654;78;25540;-63
2023/06/27 00:33:53;;;;;;;20.32;12.20;;;;;;;18.21;62.04;99494.47;1823702;78;25794;-61
2023/06/27 00:36:19;;;;;;;24.10;12.25;;;;;;;18.20;62.00;99494.28;1823589;78;25577;-62
2023/06/27 00:38:46;;;;;;;18.77;13.48;;;;;;;18.19;62.25;99505.02;1823666;78;27619;-62
2023/06/27 00:41:12;;;;;;;23.90;14.53;;;;;;;18.17;63.20;99562.09;1823624;78;25812;-62
2023/06/27 00:43:38;;;;;;;17.32;13.22;;;;;;;18.09;62.54;99558.48;1823593;78;25574;-62
2023/06/27 00:46:09;;;;;;;21.12;13.13;;;;;;;18.07;62.46;99534.83;1823571;78;27323;-61
2023/06/27 00:48:39;;;;;;;21.55;13.22;;;;;;;18.07;62.58;99540.89;1823658;78;25614;-62
2023/06/27 00:51:09;;;;;;;18.60;12.00;;;;;;;18.08;62.51;99550.09;1823638;78;27455;-61
2023/06/27 00:53:39;;;;;;;18.60;12.05;;;;;;;18.09;62.76;99544.80;1823651;78;25586;-61
2023/06/27 00:56:08;;;;;;;20.20;12.07;;;;;;;18.10;62.81;99538.77;1791304;80;25551;-62
2023/06/27 00:58:36;;;;;;;16.82;12.60;;;;;;;18.12;62.92;99537.80;1791111;80;25357;-63
2023/06/27 01:01:03;;;;;;;17.30;12.30;;;;;;;18.16;62.71;99524.14;1791306;79;25391;-62
2023/06/27 01:03:36;;;;;;;15.65;11.97;;;;;;;18.18;62.61;99525.33;1771047;80;27583;-65
2023/06/27 01:06:17;;;;;;;23.18;12.98;;;;;;;18.21;62.89;99526.53;1790254;79;26147;-60
2023/06/27 01:08:49;;;;;;;18.15;12.37;;;;;;;18.24;62.64;99525.78;1791179;79;25393;-60
2023/06/27 01:11:21;;;;;;;15.60;11.60;;;;;;;18.28;62.86;99531.47;1791183;80;25548;-61
2023/06/27 01:13:56;;;;;;;16.37;11.40;;;;;;;18.31;62.71;99521.72;1791345;79;25384;-61
2023/06/27 01:16:28;;;;;;;16.00;11.43;;;;;;;18.34;62.38;99524.27;1756440;80;27967;-61
2023/06/27 01:18:58;;;;;;;20.45;11.03;;;;;;;18.37;62.44;99528.98;1790899;79;25433;-61
2023/06/27 01:21:29;;;;;;;15.00;11.40;;;;;;;18.38;62.51;99524.50;1791204;79;25391;-61
2023/06/27 01:24:06;;;;;;;15.45;11.20;;;;;;;18.41;62.41;99524.34;1791188;79;25428;-61
2023/06/27 01:26:32;;;;;;;13.35;10.03;;;;;;;18.44;62.53;99527.70;1791289;80;25526;-61
2023/06/27 01:28:58;;;;;;;16.12;10.30;;;;;;;18.46;61.98;99526.72;1791094;79;27479;-61
2023/06/27 01:31:44;;;;;;;12.65;9.13;;;;;;;18.48;61.69;99525.16;1786260;80;25597;-61
2023/06/27 01:34:17;;;;;;;12.58;9.70;;;;;;;18.51;61.43;99523.63;1791194;79;25500;-60
2023/06/27 01:36:58;;;;;;;13.70;9.35;;;;;;;18.55;61.20;99522.28;1791156;80;26142;-60
2023/06/27 01:39:44;;;;;;;15.53;8.93;;;;;;;18.58;61.16;99532.48;1788198;80;25430;-63
2023/06/27 01:42:22;;;;;;;11.28;7.95;;;;;;;18.60;60.82;99522.70;1791205;80;27577;-60
2023/06/27 01:44:52;;;;;;;13.95;8.45;;;;;;;18.65;60.58;99529.18;1791121;79;25566;-60
2023/06/27 01:47:22;;;;;;;12.80;7.95;;;;;;;18.69;60.57;99528.42;1791222;80;25601;-61
2023/06/27 01:49:52;;;;;;;10.45;7.30;;;;;;;18.73;60.33;99529.22;1791059;80;25565;-61
2023/06/27 01:52:19;;;;;;;10.72;7.47;;;;;;;18.79;60.26;99533.17;1791202;80;25619;-62
2023/06/27 01:54:46;;;;;;;9.28;7.17;;;;;;;18.80;60.03;99527.31;1791177;79;27465;-62
2023/06/27 01:57:13;;;;;;;8.80;6.40;;;;;;;18.84;60.02;99536.36;1791074;80;26010;-62
2023/06/27 01:59:41;;;;;;;10.32;7.30;;;;;;;18.88;59.95;99538.34;1791140;79;25803;-61
2023/06/27 02:02:07;;;;;;;7.50;5.35;;;;;;;18.92;59.98;99535.83;1791124;80;25603;-61
2023/06/27 02:04:35;;;;;;;7.40;5.70;;;;;;;18.96;59.94;99532.50;1791089;80;25389;-62
2023/06/27 02:07:01;;;;;;;11.03;6.20;;;;;;;19.01;59.97;99528.63;1791151;79;27558;-63
2023/06/27 02:09:28;;;;;;;11.60;5.87;;;;;;;19.03;60.00;99525.71;1791091;80;25625;-61
2023/06/27 02:11:56;;;;;;;12.93;5.60;;;;;;;19.07;60.05;99520.80;1791282;79;25621;-62
2023/06/27 02:14:22;;;;;;;9.40;5.72;;;;;;;19.10;60.04;99526.89;1791144;80;27586;-62
2023/06/27 02:16:48;;;;;;;7.20;5.37;;;;;;;19.12;59.96;99532.77;1791348;79;25611;-63
2023/06/27 02:19:14;;;;;;;11.60;6.10;;;;;;;19.14;60.12;99533.97;1791242;79;27535;-61
2023/06/27 02:21:40;;;;;;;9.35;6.12;;;;;;;19.18;60.06;99544.95;1791213;79;25533;-62
2023/06/27 02:24:06;;;;;;;8.65;6.60;;;;;;;19.20;60.22;99543.37;1791292;80;25583;-62
2023/06/27 02:26:32;;;;;;;8.68;6.17;;;;;;;19.23;60.29;99542.61;1754112;80;25635;-63
2023/06/27 02:28:58;;;;;;;7.03;5.67;;;;;;;19.24;60.35;99536.56;1791179;79;25422;-62
2023/06/27 02:31:25;;;;;;;15.68;6.58;;;;;;;19.28;60.30;99540.09;1791240;80;27506;-63
2023/06/27 02:33:51;;;;;;;9.58;6.47;;;;;;;19.30;60.40;99543.22;1791182;79;27362;-62
2023/06/27 02:36:17;;;;;;;8.15;5.60;;;;;;;19.32;60.43;99535.39;1791313;79;25416;-63
2023/06/27 02:38:45;;;;;;;11.90;6.17;;;;;;;19.33;60.50;99534.83;1791188;79;26625;-63
2023/06/27 02:41:11;;;;;;;11.03;5.42;;;;;;;19.35;60.74;99530.51;1791326;79;25609;-62
2023/06/27 02:43:38;;;;;;;6.90;5.40;;;;;;;19.36;60.54;99532.09;1791365;80;27508;-62
2023/06/27 02:46:05;;;;;;;10.98;5.90;;;;;;;19.37;60.54;99535.02;1791288;79;25376;-62
2023/06/27 02:48:31;;;;;;;8.50;5.10;;;;;;;19.40;60.67;99530.73;1791172;80;25650;-63
2023/06/27 02:50:57;;;;;;;7.40;5.40;;;;;;;19.41;60.67;99531.72;1771462;80;25647;-62
2023/06/27 02:53:23;;;;;;;7.95;5.22;;;;;;;19.42;60.75;99518.78;1791340;80;25598;-62
2023/06/27 02:55:53;;;;;;;9.65;6.20;;;;;;;19.46;60.90;99528.38;1791194;80;27517;-62
2023/06/27 02:58:19;;;;;;;;;;;;;;;19.46;60.93;99529.19;1793953;79;25542;-61
2023/06/27 03:00:45;;;;;;;7.42;5.05;;;;;;;19.48;61.16;99532.89;1791357;79;25671;-62
2023/06/27 03:03:11;;;;;;;7.45;5.50;;;;;;;19.48;61.31;99524.66;1791159;79;25534;-61
2023/06/27 03:05:37;;;;;;;9.60;6.05;;;;;;;19.47;61.30;99512.14;1791295;80;25518;-61
2023/06/27 03:08:04;;;;;;;9.18;5.55;;;;;;;19.49;61.42;99513.91;1791239;80;27494;-61
2023/06/27 03:10:30;;;;;;;9.43;5.60;;;;;;;19.50;61.35;99512.15;1753912;80;25533;-62
2023/06/27 03:12:56;;;;;;;8.35;5.58;;;;;;;19.50;61.37;99507.26;1791225;80;25472;-62
2023/06/27 03:15:24;;;;;;;9.20;5.70;;;;;;;19.49;61.44;99492.73;1791184;79;25539;-62
2023/06/27 03:17:52;;;;;;;7.70;5.53;;;;;;;19.47;61.87;99488.83;1791397;79;25436;-62
2023/06/27 03:20:20;;;;;;;9.30;4.83;;;;;;;19.45;61.94;99491.95;1791162;80;27569;-62
2023/06/27 03:22:46;;;;;;;9.15;5.78;;;;;;;19.41;61.99;99480.98;1791229;80;25614;-62
2023/06/27 03:25:14;;;;;;;9.40;5.95;;;;;;;19.40;62.74;99490.37;1791338;79;25400;-62
2023/06/27 03:27:40;;;;;;;9.48;5.90;;;;;;;19.38;62.57;99496.06;1791168;80;25497;-62
2023/06/27 03:30:12;;;;;;;11.73;6.58;;;;;;;19.36;62.88;99492.93;1795252;79;25590;-62
2023/06/27 03:32:40;;;;;;;7.62;5.30;;;;;;;19.35;63.32;99496.83;1797187;79;27681;-65
2023/06/27 03:35:09;;;;;;;13.10;5.83;;;;;;;19.33;63.63;99495.84;1797024;79;27440;-61
2023/06/27 03:37:35;;;;;;;7.95;5.83;;;;;;;19.30;64.26;99492.50;1797254;79;25559;-62
2023/06/27 03:40:06;;;;;;;14.95;6.78;;;;;;;19.26;65.02;99495.83;1797179;79;25617;-61
2023/06/27 03:42:33;;;;;;;6.47;5.45;;;;;;;19.20;66.18;99499.52;1797200;79;25551;-66
2023/06/27 03:44:59;;;;;;;8.80;6.25;;;;;;;19.14;66.64;99493.45;1797150;79;28062;-61
2023/06/27 03:47:25;;;;;;;7.55;5.83;;;;;;;19.13;66.75;99504.98;1796955;79;25345;-60
2023/06/27 03:49:51;;;;;;;14.53;6.60;;;;;;;19.11;67.00;99496.95;1797096;79;25634;-60
2023/06/27 03:52:20;;;;;;;10.58;6.42;;;;;;;19.09;67.68;99506.16;1797092;79;25554;-61
2023/06/27 03:54:46;;;;;;;8.43;6.92;;;;;;;19.09;68.12;99512.41;1797413;79;25598;-60
2023/06/27 03:57:12;;;;;;;11.35;6.35;;;;;;;19.08;68.44;99504.58;1781693;79;27558;-61
2023/06/27 03:59:39;;;;;;;9.93;6.60;;;;;;;19.02;69.19;99495.35;1764290;79;25406;-61
2023/06/27 04:02:07;;;;;;;8.73;6.50;;;;;;;18.99;70.11;99492.60;1797224;79;25459;-60
2023/06/27 04:04:34;;;;;;;11.33;6.72;;;;;;;18.91;70.30;99491.77;1765575;79;26254;-60
2023/06/27 04:07:00;;;;;;;12.25;7.22;;;;;;;18.90;70.85;99499.00;1797406;79;25139;-60
2023/06/27 04:09:26;;;;;;;9.65;6.45;;;;;;;18.91;70.78;99515.06;1797346;79;27997;-60
2023/06/27 04:11:52;;;;;;;10.70;6.90;;;;;;;18.90;70.90;99516.25;1797311;79;25609;-60
2023/06/27 04:14:18;;;;;;;9.08;6.55;;;;;;;18.92;71.55;99519.38;1797257;79;25610;-60
2023/06/27 04:16:46;;;;;;;9.48;7.05;;;;;;;18.93;71.62;99510.57;1797077;79;26036;-60
2023/06/27 04:19:12;;;;;;;11.97;6.80;;;;;;;18.94;71.85;99515.67;1765375;79;25397;-60
2023/06/27 04:21:38;;;;;;;9.58;7.40;;;;;;;18.95;71.91;99519.19;1797126;79;27547;-60
2023/06/27 04:24:07;;;;;;;14.45;6.92;;;;;;;18.95;72.08;99529.58;1797034;79;25708;-59
2023/06/27 04:26:33;;;;;;;10.45;7.05;;;;;;;18.97;72.16;99538.80;1797235;79;25582;-60
2023/06/27 04:29:00;;;;;;;13.00;7.62;;;;;;;18.94;72.58;99535.44;1796190;79;25583;-59
2023/06/27 04:31:26;;;;;;;11.68;7.83;;;;;;;18.88;72.51;99538.34;1791314;80;25530;-60
2023/06/27 04:33:55;;;;;;;11.55;7.97;;;;;;;18.83;72.63;99534.00;1791141;79;27450;-60
2023/06/27 04:36:20;;;;;;;12.98;7.92;;;;;;;18.80;72.99;99529.28;1790402;79;25412;-61
2023/06/27 04:38:48;;;;;;;10.55;7.15;;;;;;;18.78;73.22;99537.88;1791169;80;25629;-61
2023/06/27 04:41:15;;;;;;;10.40;7.55;;;;;;;18.75;73.53;99543.34;1791402;79;25591;-60
2023/06/27 04:43:41;;;;;;;12.88;7.72;;;;;;;18.70;73.72;99546.44;1791259;80;25366;-60
2023/06/27 04:46:11;;;;;;;14.98;7.58;;;;;;;18.66;74.32;99549.94;1791202;79;27562;-60
2023/06/27 04:48:37;;;;;;;10.45;7.90;;;;;;;18.60;74.50;99545.97;1791157;79;25617;-61
2023/06/27 04:51:04;;;;;;;11.93;7.95;;;;;;;18.59;74.76;99540.88;1791215;79;25608;-57
2023/06/27 04:53:32;;;;;;;16.95;9.08;;;;;;;18.57;75.19;99535.78;1791126;80;25456;-58
2023/06/27 04:55:59;;;;;;;12.65;7.75;;;;;;;18.55;75.34;99527.16;1755355;80;25393;-58
2023/06/27 04:58:25;;;;;;;12.68;6.97;;;;;;;18.54;75.88;99524.23;1791139;79;27468;-58
2023/06/27 05:00:51;;;;;;;14.43;7.17;;;;;;;18.53;76.18;99525.98;1791089;79;25628;-58
2023/06/27 05:03:22;;;;;;;9.35;6.30;;;;;;;18.48;76.70;99521.05;1791175;79;25583;-58
2023/06/27 05:05:49;;;;;;;9.60;6.30;;;;;;;18.44;76.63;99519.48;1755344;80;25752;-58
2023/06/27 05:08:17;;;;;;;9.83;6.10;;;;;;;18.42;77.16;99512.20;1791147;79;25367;-55
2023/06/27 05:10:43;;;;;;;9.85;5.70;;;;;;;18.40;77.32;99504.97;1791140;80;27498;-57
2023/06/27 05:13:09;;;;;;;10.45;6.20;;;;;;;18.39;77.28;99504.19;1791117;79;25619;-56
2023/06/27 05:15:35;;;;;;;7.17;5.97;;;;;;;18.43;77.67;99504.20;1791117;80;25385;-55
2023/06/27 05:18:16;;;;;;;6.97;5.72;;;;;;;18.43;77.80;99500.88;1791085;80;25692;-54
2023/06/27 05:20:47;;;;;;;8.58;5.97;;;;;;;18.43;77.57;99494.03;1791177;80;25416;-58
2023/06/27 05:23:15;;;;;;;9.98;6.08;;;;;;;18.44;77.72;99494.84;1791227;80;27010;-57
2023/06/27 05:25:41;;;;;;;8.28;6.00;;;;;;;18.44;77.88;99494.24;1791050;79;25586;-58
2023/06/27 05:28:08;;;;;;;9.78;5.45;;;;;;;18.43;78.41;99492.66;1771505;80;25606;-54
2023/06/27 05:30:36;;;;;;;7.95;6.05;;;;;;;18.42;78.24;99491.67;1794808;79;26044;-53
2023/06/27 05:33:02;;;;;;;10.13;6.80;;;;;;;18.42;78.31;99496.59;1797153;79;25600;-53
2023/06/27 05:35:28;;;;;;;9.68;6.55;;;;;;;18.42;78.50;99488.38;1797082;79;27461;-56
2023/06/27 05:37:54;;;;;;;7.22;5.80;;;;;;;18.42;78.95;99487.56;1796957;79;25524;-55
2023/06/27 05:40:21;;;;;;;11.88;6.90;;;;;;;18.40;79.00;99489.91;1796987;79;25580;-54
2023/06/27 05:42:47;;;;;;;11.53;7.12;;;;;;;18.41;79.60;99490.89;1796972;79;25518;-53
2023/06/27 05:45:13;;;;;;;11.95;7.22;;;;;;;18.40;80.06;99483.84;1797052;79;25614;-53
2023/06/27 05:47:39;;;;;;;13.53;7.58;;;;;;;18.39;80.38;99489.69;1797090;79;27426;-55
2023/06/27 05:50:10;;;;;;;10.32;7.83;;;;;;;18.38;80.36;99488.91;1797083;79;25586;-55
2023/06/27 05:52:36;;;;;;;14.50;8.15;;;;;;;18.38;80.75;99493.61;1797479;79;25320;-56
2023/06/27 05:56:02;;;;;;;14.03;8.75;;;;;;;18.35;80.91;99494.37;1797150;79;27765;-54
2023/06/27 05:58:29;;;;;;;13.30;8.10;;;;;;;18.31;81.21;99514.88;1797236;79;25593;-57
2023/06/27 06:00:56;;;;;;;11.80;8.08;;;;;;;18.23;81.95;99507.19;1797274;79;28123;-55
2023/06/27 06:03:24;;;;;;;19.65;8.75;;;;;;;18.15;82.41;99500.67;1797149;79;25757;-58
2023/06/27 06:05:52;;;;;;;14.65;9.08;;;;;;;18.07;82.57;99486.94;1797361;79;25349;-57
2023/06/27 06:08:20;;;;;;;14.83;9.45;;;;;;;18.03;83.72;99494.91;1797202;79;26242;-57
2023/06/27 06:10:50;;;;;;;10.35;7.12;;;;;;;17.99;84.49;99494.88;1765035;79;25620;-60
2023/06/27 06:13:14;;;;;;;6.65;5.15;;;;;;;17.92;85.20;99502.45;1796482;79;27544;-60
2023/06/27 06:15:40;;;;;;;9.00;5.33;;;;;;;17.85;85.36;99509.79;1797198;79;25538;-61
2023/06/27 06:18:06;;;;;;;5.25;4.00;;;;;;;17.76;85.70;99520.23;1797296;79;25641;-62
2023/06/27 06:20:32;;;;;;;6.80;4.85;;;;;;;17.69;86.78;99525.86;1797272;79;25543;-62
2023/06/27 06:22:59;;;;;;;7.35;4.05;;;;;;;17.63;86.51;99536.92;1765484;79;25610;-62
2023/06/27 06:25:27;;;;;;;6.40;4.37;;;;;;;17.59;86.83;99536.11;1797309;79;27565;-62
2023/06/27 06:27:53;;;;;;;7.22;4.40;;;;;;;17.59;87.16;99550.34;1797193;79;25518;-62
2023/06/27 06:30:20;;;;;;;7.10;4.12;;;;;;;17.57;87.60;99548.01;1797152;79;25569;-62
2023/06/27 06:32:46;;;;;;;7.35;4.30;;;;;;;17.54;87.51;99545.42;1797262;79;25559;-63
2023/06/27 06:35:12;;;;;;;6.28;3.83;;;;;;;17.47;86.98;99546.72;1797273;79;25376;-64
2023/06/27 06:37:38;;;;;;;6.20;3.85;;;;;;;17.39;86.89;99557.95;1797291;79;28223;-64
2023/06/27 06:40:07;;;;;;;7.55;4.45;;;;;;;17.28;86.99;99555.88;1797137;79;25364;-64
2023/06/27 06:42:33;;;;;;;5.83;4.15;;;;;;;17.25;87.51;99556.62;1797288;79;25601;-64
2023/06/27 06:44:59;;;;;;;6.35;3.92;;;;;;;17.21;87.95;99561.23;1765371;79;25776;-63
2023/06/27 06:47:26;;;;;;;6.12;3.47;;;;;;;17.14;87.80;99551.00;1797291;79;25607;-65
2023/06/27 06:49:53;;;;;;;5.20;3.85;;;;;;;17.09;88.31;99550.55;1797263;79;27489;-65
2023/06/27 06:52:19;;;;;;;5.20;3.98;;;;;;;17.03;88.44;99558.29;1797168;79;25648;-65
2023/06/27 06:54:46;;;;;;;7.65;3.83;;;;;;;17.02;88.98;99561.39;1765394;79;25401;-65
2023/06/27 06:57:13;;;;;;;8.58;3.92;;;;;;;16.99;89.27;99562.91;1797213;79;25466;-66
2023/06/27 06:59:39;;;;;;;5.92;4.42;;;;;;;16.99;89.73;99550.61;1797225;79;25449;-66
2023/06/27 07:02:06;;;;;;;7.25;4.67;;;;;;;17.03;90.76;99554.78;1797243;79;29745;-65
2023/06/27 07:09:42;;;;;;;6.60;4.95;;;;;;;17.09;91.27;99562.25;1710734;80;27419;-63
2023/06/27 07:12:09;;;;;;;9.43;6.00;;;;;;;17.12;91.81;99564.84;1731706;82;25628;-63
2023/06/27 07:14:35;;;;;;;10.53;6.55;;;;;;;17.16;92.29;99565.09;1731664;82;27478;-64
2023/06/27 07:17:02;;;;;;;11.75;5.85;;;;;;;17.18;92.10;99572.34;1731613;82;25458;-64
2023/06/27 07:19:28;;;;;;;6.85;6.12;;;;;;;17.20;92.17;99584.27;1731714;82;25385;-64
2023/06/27 07:21:54;;;;;;;14.43;6.72;;;;;;;17.21;92.47;99580.36;1731657;82;25679;-64
2023/06/27 07:24:21;;;;;;;13.40;7.22;;;;;;;17.22;92.29;99590.73;1731745;82;25445;-64
2023/06/27 07:26:47;;;;;;;11.00;7.15;;;;;;;17.23;92.34;99586.27;1727275;82;27165;-64
2023/06/27 07:29:13;;;;;;;9.78;7.60;;;;;;;17.22;92.28;99596.98;1731609;82;25772;-63
2023/06/27 07:31:40;;;;;;;10.40;7.15;;;;;;;17.26;92.88;99594.29;1731691;82;25414;-63
2023/06/27 07:34:06;;;;;;;16.25;9.58;;;;;;;17.35;93.52;99597.55;1731645;81;26148;-63
2023/06/27 07:36:32;;;;;;;12.40;8.33;;;;;;;17.44;94.61;99594.52;1731699;82;25416;-64
2023/06/27 07:39:01;;;;;;;8.73;7.60;;;;;;;17.55;94.35;99603.63;1731747;82;27715;-64
2023/06/27 07:41:32;;;;;;;13.28;8.20;;;;;;;17.62;94.65;99596.08;1727146;82;26099;-65
2023/06/27 07:44:02;;;;;;;11.33;8.28;;;;;;;17.62;93.54;99604.28;1731649;82;25619;-63
2023/06/27 07:46:30;;;;;;;12.13;8.03;;;;;;;17.66;93.50;99603.77;1730670;82;25638;-64
2023/06/27 07:48:59;;;;;;;10.80;8.03;;;;;;;17.77;94.41;99607.39;1731657;82;25557;-63
2023/06/27 07:51:29;;;;;;;12.80;9.33;;;;;;;17.88;94.51;99600.13;1700616;82;28457;-63
2023/06/27 07:53:56;;;;;;;14.35;9.93;;;;;;;18.03;95.17;99596.14;1731597;82;25224;-64
2023/06/27 07:56:23;;;;;;;16.48;10.15;;;;;;;18.20;95.97;99601.58;1731648;82;25570;-63
2023/06/27 07:58:51;;;;;;;81.37;76.22;;;;;;;18.37;96.91;99605.08;1731675;82;25782;-63
2023/06/27 08:01:19;;;;;;;16.67;9.43;;;;;;;18.44;95.32;99599.66;1731793;82;25195;-64
2023/06/27 08:03:46;;;;;;;15.08;8.83;;;;;;;18.53;94.98;99607.55;1731775;82;27554;-63
2023/06/27 08:06:14;;;;;;;11.97;8.68;;;;;;;18.56;94.68;99605.42;1731457;82;27299;-63
2023/06/27 08:08:40;;;;;;;12.75;7.58;;;;;;;18.68;95.24;99611.19;1731622;82;25592;-63
2023/06/27 08:11:06;;;;;;;9.30;7.00;;;;;;;18.76;93.50;99608.70;1736294;82;25427;-64
2023/06/27 08:13:34;;;;;;;11.22;7.22;;;;;;;18.84;93.42;99607.59;1739497;82;25595;-63
2023/06/27 08:16:02;;;;;;;9.20;6.28;;;;;;;19.16;93.65;99609.73;1739633;81;27511;-62
2023/06/27 08:18:30;;;;;;;6.35;5.75;;;;;;;19.16;93.65;99609.73;1739381;81;25574;-61
2023/06/27 08:20:56;;;;;;;10.95;6.42;;;;;;;19.29;93.17;99601.18;1739389;81;25687;-62
2023/06/27 08:23:23;;;;;;;10.65;7.35;;;;;;;19.53;94.07;99598.34;1735152;82;25742;-63
2023/06/27 08:25:50;;;;;;;14.03;8.30;;;;;;;19.68;94.14;99604.09;1739523;82;25426;-62
2023/06/27 08:28:18;;;;;;;11.93;6.40;;;;;;;19.78;94.01;99601.19;1739542;82;27519;-61
2023/06/27 08:30:44;;;;;;;11.08;6.67;;;;;;;19.80;92.21;99605.70;1712476;82;25817;-62
2023/06/27 08:33:11;;;;;;;11.60;6.15;;;;;;;19.77;91.24;99606.50;1739514;82;25393;-61
2023/06/27 08:35:39;;;;;;;12.55;6.00;;;;;;;19.80;91.52;99615.30;1739504;82;26042;-61
2023/06/27 08:38:06;;;;;;;8.10;6.00;;;;;;;19.85;90.70;99615.52;1739635;82;25574;-61
2023/06/27 08:40:38;;;;;;;9.53;8.68;;;;;;;20.04;89.58;99608.32;1739524;82;27451;-61
2023/06/27 08:43:06;;;;;;;13.00;10.63;;;;;;;20.06;88.53;99612.83;1739486;82;25487;-61
2023/06/27 08:45:35;;;;;;;13.00;12.03;;;;;;;20.03;88.48;99614.97;1739474;82;25432;-60
2023/06/27 08:48:09;;;;;;;9.15;5.87;;;;;;;19.86;84.42;99611.61;1739497;82;25568;-60
2023/06/27 08:50:40;;;;;;;21.40;19.57;;;;;;;19.78;86.19;99619.02;1739549;82;25657;-60
2023/06/27 08:53:17;;;;;;;7.25;6.28;;;;;;;19.82;86.56;99623.14;1739561;82;27482;-61
2023/06/27 08:55:55;;;;;;;8.63;6.53;;;;;;;19.70;85.03;99618.20;1739583;82;25176;-59
2023/06/27 08:58:27;;;;;;;8.23;6.17;;;;;;;19.55;83.57;99620.10;1739595;82;25554;-58
2023/06/27 09:00:56;;;;;;;9.05;7.85;;;;;;;19.38;83.87;99624.34;1739524;82;26151;-58
2023/06/27 09:03:24;;;;;;;;;;;;;;;19.51;85.07;99634.97;1742055;82;25542;-58
2023/06/27 09:05:53;;;;;;;76.42;71.62;;;;;;;19.57;85.77;99625.20;1739423;82;27574;-57
2023/06/27 09:08:20;;;;;;;79.70;74.85;;;;;;;19.76;87.21;99631.76;1739497;82;25624;-57
2023/06/27 09:10:47;;;;;;;61.13;57.13;;;;;;;20.12;88.40;99635.18;1734597;81;25446;-57
2023/06/27 09:13:15;;;;;;;79.47;74.27;;;;;;;20.40;87.82;99635.81;1699538;83;25831;-55
2023/06/27 09:15:41;;;;;;;8.18;4.22;;;;;;;20.46;84.21;99634.83;1726469;83;25556;-57
2023/06/27 09:18:07;;;;;;;15.48;4.53;;;;;;;20.47;80.94;99646.80;1726650;83;27452;-52
2023/06/27 09:20:34;;;;;;;6.70;4.03;;;;;;;20.58;80.73;99658.37;1726508;83;25552;-53
2023/06/27 09:23:05;;;;;;;6.20;3.05;;;;;;;20.62;79.11;99650.91;1726503;82;25533;-55
2023/06/27 09:25:30;;;;;;;;;;;;;;;20.72;76.74;99658.39;1701837;83;26123;-54
2023/06/27 09:28:00;;;;;;;75.20;70.60;;;;;;;21.23;76.98;99639.28;1726429;83;25410;-54
2023/06/27 09:30:31;;;;;;;73.72;69.22;;;;;;;21.61;75.55;99642.91;1726385;83;27556;-52
2023/06/27 09:33:01;;;;;;;36.20;33.70;;;;;;;21.90;73.49;99649.06;1726371;83;25409;-50
2023/06/27 09:35:31;;;;;;;22.52;21.07;;;;;;;22.38;70.38;99648.38;1726461;83;25392;-57
2023/06/27 09:38:06;;;;;;;4.10;1.95;;;;;;;22.74;70.18;99653.59;1726591;81;25604;-53
2023/06/27 09:40:35;;;;;;;4.20;1.87;;;;;;;22.80;65.54;99648.45;1742249;79;26166;-52
2023/06/27 09:43:08;;;;;;;8.38;1.92;;;;;;;23.13;65.90;99651.69;1756438;80;27650;-54
2023/06/27 09:45:36;;;;;;;34.08;31.40;;;;;;;23.54;65.02;99654.97;1705545;84;25709;-55
2023/06/27 09:48:04;;;;;;;68.40;64.60;;;;;;;23.98;63.82;99651.09;1697810;84;25395;-53
2023/06/27 09:50:32;;;;;;;69.70;65.15;;;;;;;24.22;61.32;99658.22;1673883;84;26033;-52
2023/06/27 12:43:46;;;;;;;64.37;60.80;;;;;;;26.13;37.89;99606.86;1868352;76;25424;-54
2023/06/27 12:46:14;;;;;;;22.70;21.23;;;;;;;26.30;37.40;99592.39;1824502;78;25356;-54
2023/06/27 12:48:42;;;;;;;10.43;1.90;;;;;;;26.56;37.95;99589.95;1824466;78;27464;-58
2023/06/27 12:51:11;;;;;;;68.10;64.10;;;;;;;26.99;38.21;99589.45;1824669;78;25723;-56
2023/06/27 12:53:38;;;;;;;65.70;62.03;;;;;;;27.50;37.66;99581.27;1824491;78;25585;-58
2023/06/27 12:56:05;;;;;;;63.83;60.15;;;;;;;27.54;37.01;99584.70;1824446;78;25534;-59
2023/06/27 12:58:33;;;;;;;63.70;60.33;;;;;;;27.50;36.58;99568.77;1804161;78;25372;-57
2023/06/27 13:01:00;;;;;;;63.68;60.28;;;;;;;27.24;35.91;99576.23;1824476;78;28055;-58
2023/06/27 13:03:30;;;;;;;63.87;59.93;;;;;;;26.90;35.89;99567.89;1824381;78;25415;-60
2023/06/27 13:05:57;;;;;;;63.63;60.05;;;;;;;26.57;36.13;99571.31;1824469;78;25601;-58
2023/06/27 13:08:24;;;;;;;66.33;62.70;;;;;;;26.15;36.00;99573.33;1824417;78;25537;-59
2023/06/27 13:11:11;;;;;;;64.60;60.95;;;;;;;25.88;36.42;99571.58;1824458;78;25565;-59
2023/06/27 13:13:38;;;;;;;68.62;64.58;;;;;;;25.83;37.02;99582.37;1730191;83;27549;-57
2023/06/27 13:16:05;;;;;;;66.50;62.55;;;;;;;26.14;36.63;99573.17;1730034;83;25398;-58
2023/06/27 13:18:32;;;;;;;65.28;61.68;;;;;;;26.15;36.42;99567.02;1693801;83;25517;-54
2023/06/27 13:20:58;;;;;;;66.62;62.45;;;;;;;25.98;36.64;99578.09;1730146;83;25599;-54
2023/06/27 13:23:25;;;;;;;64.87;61.28;;;;;;;25.64;37.05;99593.09;1730107;83;25418;-54
2023/06/27 13:25:51;;;;;;;67.12;63.52;;;;;;;25.28;37.74;99592.44;1730140;83;27549;-53
2023/06/27 13:28:17;;;;;;;68.33;64.55;;;;;;;24.90;38.96;99601.66;1730134;83;25424;-56
2023/06/27 13:30:43;;;;;;;70.22;66.42;;;;;;;24.56;40.12;99606.20;1730262;83;25651;-55
2023/06/27 13:33:09;;;;;;;8.25;4.53;;;;;;;24.26;41.05;99596.61;1717872;83;26221;-53
2023/06/27 13:35:36;;;;;;;8.45;5.40;;;;;;;23.92;42.35;99615.47;1730114;83;25401;-58
2023/06/27 13:38:02;;;;;;;4.10;3.37;;;;;;;23.60;42.69;99603.65;1730125;83;28183;-56
2023/06/27 13:40:29;;;;;;;3.83;3.47;;;;;;;23.54;42.57;99610.81;1730080;83;25850;-57
2023/06/27 13:42:56;;;;;;;6.67;3.27;;;;;;;23.62;42.46;99617.81;1730121;83;25583;-57
2023/06/27 13:45:22;;;;;;;6.50;3.00;;;;;;;23.77;42.56;99615.64;1730104;82;25462;-57
2023/06/27 13:47:49;;;;;;;69.42;65.45;;;;;;;23.98;42.47;99616.57;1730138;83;25469;-58
2023/06/27 13:50:15;;;;;;;70.00;66.07;;;;;;;24.04;42.09;99617.07;1725535;83;27342;-56
2023/06/27 13:52:41;;;;;;;68.70;64.87;;;;;;;23.97;41.82;99623.28;1699352;84;25482;-54
2023/06/27 13:55:08;;;;;;;68.20;64.20;;;;;;;23.84;42.34;99636.28;1691882;83;25668;-58
2023/06/27 13:57:35;;;;;;;70.25;66.07;;;;;;;23.62;43.31;99637.13;1719739;83;25502;-57
2023/06/27 14:00:01;;;;;;;69.90;66.05;;;;;;;23.43;43.99;99646.83;1719834;82;25658;-58
2023/06/27 14:02:27;;;;;;;69.50;65.15;;;;;;;23.24;44.67;99646.86;1719728;82;28333;-59
2023/06/27 14:04:55;;;;;;;69.90;65.83;;;;;;;23.02;45.31;99643.51;1719670;82;25552;-58
2023/06/27 14:07:22;;;;;;;33.42;31.17;;;;;;;22.78;46.62;99643.14;1719771;83;25574;-59
2023/06/27 14:09:48;;;;;;;41.10;38.35;;;;;;;22.60;47.49;99639.95;1719711;83;25437;-58
2023/06/27 14:12:16;;;;;;;8.35;2.00;;;;;;;22.51;48.93;99635.52;1720059;83;25495;-58
2023/06/27 14:14:48;;;;;;;8.63;2.42;;;;;;;22.61;49.41;99631.08;1719824;83;27546;-58
2023/06/27 14:17:11;;;;;;;4.33;2.58;;;;;;;22.83;49.09;99624.20;1718717;83;25572;-58
2023/06/27 14:19:38;;;;;;;4.10;3.70;;;;;;;23.00;46.61;99625.19;1719779;83;25585;-59
2023/06/27 14:22:05;;;;;;;2.60;1.45;;;;;;;23.11;45.50;99630.03;1719708;83;25473;-60
2023/06/27 14:24:31;;;;;;;1.80;1.07;;;;;;;23.12;43.88;99631.61;1720003;83;25236;-60
2023/06/27 14:26:57;;;;;;;2.83;1.47;;;;;;;22.98;43.19;99627.58;1720019;83;28353;-59